Time;durP1;ratioP1;P1;durP2;ratioP2;P2;SDS_P1;SDS_P2;PMS_P1;PMS_P2;Temp;Humidity;BMP_temperature;BMP_pressure;BME280_temperature;BME280_humidity;BME280_pressure;Samples;Min_cycle;Max_cycle;Signal;HPM_P1;HPM_P2
2023/03/20 00:00:55;;;;;;;;;;;;;;;;;;5039816;28;20037;-42
2023/03/20 00:03:20;;;;;;;9.65;4.65;;;;;;;;;;5040920;28;19931;-44
2023/03/20 00:05:46;;;;;;;9.63;4.65;;;;;;;;;;5039436;28;22983;-42
2023/03/20 00:08:11;;;;;;;10.10;5.15;;;;;;;;;;5034845;28;20047;-41
2023/03/20 00:10:43;;;;;;;8.38;5.70;;;;;;;;;;5041560;28;20628;-41
2023/03/20 00:13:23;;;;;;;11.10;6.43;;;;;;;;;;5034769;28;20035;-46
2023/03/20 00:15:49;;;;;;;11.27;6.18;;;;;;;;;;5039884;28;20034;-42
2023/03/20 00:18:18;;;;;;;8.57;4.97;;;;;;;;;;5040370;28;20122;-43
2023/03/20 00:20:47;;;;;;;10.10;6.05;;;;;;;;;;5036061;28;20152;-43
2023/03/20 00:23:13;;;;;;;10.73;5.15;;;;;;;;;;5032666;28;20024;-43
2023/03/20 00:25:40;;;;;;;7.97;5.53;;;;;;;;;;5032139;28;20033;-41
2023/03/20 00:28:40;;;;;;;9.45;5.70;;;;;;;;;;5037227;28;20038;-42
2023/03/20 00:31:26;;;;;;;9.02;5.90;;;;;;;;;;5032211;28;20512;-42
2023/03/20 00:33:54;;;;;;;10.73;5.82;;;;;;;;;;5038266;28;20382;-42
2023/03/20 00:36:20;;;;;;;10.45;5.55;;;;;;;;;;5038616;28;20041;-42
2023/03/20 00:38:46;;;;;;;8.02;5.80;;;;;;;;;;5037038;28;20030;-41
2023/03/20 00:41:20;;;;;;;4.97;4.53;;;;;;;;;;5028215;28;20030;-44
2023/03/20 00:43:48;;;;;;;10.15;5.60;;;;;;;;;;5033090;28;20176;-42
2023/03/20 00:46:14;;;;;;;6.07;4.55;;;;;;;;;;5040825;28;20120;-41
2023/03/20 00:48:41;;;;;;;6.05;4.65;;;;;;;;;;5037233;28;20542;-42
2023/03/20 00:51:06;;;;;;;6.78;3.92;;;;;;;;;;5036248;28;20041;-45
2023/03/20 00:53:32;;;;;;;9.23;4.32;;;;;;;;;;5034771;28;20026;-45
2023/03/20 00:55:58;;;;;;;4.57;3.92;;;;;;;;;;5036849;28;20042;-41
2023/03/20 00:58:23;;;;;;;13.32;3.50;;;;;;;;;;5031330;28;20380;-41
2023/03/20 01:00:49;;;;;;;7.35;3.70;;;;;;;;;;5039616;28;21756;-44
2023/03/20 01:03:17;;;;;;;5.93;3.90;;;;;;;;;;5036861;28;20066;-42
2023/03/20 01:05:44;;;;;;;4.75;3.35;;;;;;;;;;5032761;28;20139;-42
2023/03/20 01:08:16;;;;;;;7.20;3.38;;;;;;;;;;5039244;28;20493;-41
2023/03/20 01:10:44;;;;;;;4.63;3.40;;;;;;;;;;5037289;28;20048;-41
2023/03/20 01:13:25;;;;;;;4.75;3.30;;;;;;;;;;5032641;28;20022;-41
2023/03/20 01:15:54;;;;;;;4.40;3.20;;;;;;;;;;5033021;28;20046;-45
2023/03/20 01:18:21;;;;;;;6.30;3.20;;;;;;;;;;5041560;28;20563;-45
2023/03/20 01:20:48;;;;;;;5.32;3.20;;;;;;;;;;5032747;28;20532;-41
2023/03/20 01:23:14;;;;;;;4.70;3.28;;;;;;;;;;5038546;28;20045;-44
2023/03/20 01:25:40;;;;;;;3.22;2.70;;;;;;;;;;5040536;28;20095;-45
2023/03/20 01:28:24;;;;;;;2.97;2.70;;;;;;;;;;5035606;28;20021;-44
2023/03/20 01:30:49;;;;;;;3.67;3.10;;;;;;;;;;5031659;28;20049;-42
2023/03/20 01:33:20;;;;;;;4.75;2.80;;;;;;;;;;5039014;28;20025;-41
2023/03/20 01:35:47;;;;;;;5.15;3.17;;;;;;;;;;5039843;28;20083;-46
2023/03/20 01:38:33;;;;;;;5.50;2.60;;;;;;;;;;5037414;28;20037;-41
2023/03/20 01:41:10;;;;;;;3.50;2.60;;;;;;;;;;5037341;28;20040;-41
2023/03/20 01:43:36;;;;;;;3.55;2.70;;;;;;;;;;5038673;28;20477;-42
2023/03/20 01:46:13;;;;;;;3.25;2.95;;;;;;;;;;5036509;28;20077;-43
2023/03/20 01:48:51;;;;;;;3.33;3.00;;;;;;;;;;5030641;28;20034;-44
2023/03/20 01:51:27;;;;;;;5.30;3.75;;;;;;;;;;5037204;28;20045;-40
2023/03/20 01:54:11;;;;;;;6.25;3.08;;;;;;;;;;5035174;28;20112;-49
2023/03/20 01:56:42;;;;;;;6.28;3.60;;;;;;;;;;5053409;28;20417;-44
2023/03/20 01:59:14;;;;;;;6.85;4.20;;;;;;;;;;5035831;28;20438;-45
2023/03/20 02:01:41;;;;;;;8.02;4.78;;;;;;;;;;5034991;28;20037;-42
2023/03/20 02:04:07;;;;;;;5.80;4.90;;;;;;;;;;5038128;28;20074;-41
2023/03/20 02:06:35;;;;;;;7.25;6.20;;;;;;;;;;5035636;28;20072;-51
2023/03/20 02:09:01;;;;;;;10.18;6.82;;;;;;;;;;5035979;28;20030;-43
2023/03/20 02:11:26;;;;;;;7.20;6.60;;;;;;;;;;5037264;28;20098;-45
2023/03/20 02:13:55;;;;;;;9.45;6.80;;;;;;;;;;5036996;28;20469;-44
2023/03/20 02:16:21;;;;;;;12.50;7.15;;;;;;;;;;5036333;28;20056;-43
2023/03/20 02:18:50;;;;;;;7.00;5.60;;;;;;;;;;5034703;28;20486;-43
2023/03/20 02:21:48;;;;;;;6.50;5.93;;;;;;;;;;5033953;28;20100;-46
2023/03/20 02:24:14;;;;;;;7.07;5.78;;;;;;;;;;4990463;28;20045;-40
2023/03/20 02:27:16;;;;;;;6.18;5.63;;;;;;;;;;4992588;28;20474;-41
2023/03/20 02:30:00;;;;;;;7.78;6.25;;;;;;;;;;4991783;28;20046;-41
2023/03/20 02:32:51;;;;;;;6.78;6.15;;;;;;;;;;4991019;28;20045;-42
2023/03/20 02:35:34;;;;;;;9.38;5.88;;;;;;;;;;4991656;28;20042;-41
2023/03/20 02:38:24;;;;;;;6.15;5.55;;;;;;;;;;4993365;28;20029;-45
2023/03/20 02:41:21;;;;;;;7.45;5.72;;;;;;;;;;4935702;29;20647;-41
2023/03/20 02:43:56;;;;;;;7.47;6.07;;;;;;;;;;4936242;29;20071;-42
2023/03/20 02:46:33;;;;;;;6.25;5.75;;;;;;;;;;4937885;29;20047;-41
2023/03/20 02:49:08;;;;;;;6.32;5.72;;;;;;;;;;4938814;29;20499;-41
2023/03/20 02:51:44;;;;;;;6.75;5.78;;;;;;;;;;4935143;29;20081;-41
2023/03/20 02:54:31;;;;;;;6.00;5.45;;;;;;;;;;4932271;29;20409;-43
2023/03/20 02:57:03;;;;;;;7.68;4.97;;;;;;;;;;4937709;29;20142;-41
2023/03/20 02:59:40;;;;;;;5.72;4.90;;;;;;;;;;4944367;28;20800;-42
2023/03/20 03:02:11;;;;;;;5.10;4.70;;;;;;;;;;4955244;28;20511;-44
2023/03/20 03:04:40;;;;;;;5.00;4.50;;;;;;;;;;4954888;28;20047;-44
2023/03/20 03:07:08;;;;;;;6.93;5.13;;;;;;;;;;4952971;28;20491;-42
2023/03/20 03:09:39;;;;;;;5.32;4.82;;;;;;;;;;4956489;28;20479;-41
2023/03/20 03:12:11;;;;;;;4.75;4.25;;;;;;;;;;4952474;28;20042;-42
2023/03/20 03:14:42;;;;;;;6.55;4.28;;;;;;;;;;4951705;28;20049;-42
2023/03/20 03:17:09;;;;;;;7.72;4.30;;;;;;;;;;4971446;28;20120;-46
2023/03/20 03:19:37;;;;;;;5.57;4.80;;;;;;;;;;5036700;28;20045;-44
2023/03/20 03:22:03;;;;;;;5.68;4.05;;;;;;;;;;5036724;28;20118;-43
2023/03/20 03:24:32;;;;;;;4.43;4.05;;;;;;;;;;5037156;28;20122;-44
2023/03/20 03:27:00;;;;;;;5.22;4.72;;;;;;;;;;5032988;28;20040;-41
2023/03/20 03:29:32;;;;;;;5.85;3.92;;;;;;;;;;5032788;28;20025;-41
2023/03/20 03:32:00;;;;;;;;;;;;;;;;;;5033851;28;20077;-43
2023/03/20 03:34:26;;;;;;;4.00;3.63;;;;;;;;;;5037483;28;20050;-43
2023/03/20 03:37:23;;;;;;;3.83;3.53;;;;;;;;;;5030881;28;20041;-41
2023/03/20 03:39:51;;;;;;;3.38;3.08;;;;;;;;;;5029404;28;20029;-42
2023/03/20 03:42:36;;;;;;;2.58;2.38;;;;;;;;;;5037238;28;20026;-42
2023/03/20 03:45:27;;;;;;;2.60;2.42;;;;;;;;;;5026739;28;20033;-42
2023/03/20 03:47:59;;;;;;;2.80;2.60;;;;;;;;;;4974498;28;20074;-42
2023/03/20 03:50:39;;;;;;;2.83;2.40;;;;;;;;;;4974479;28;20097;-42
2023/03/20 03:53:10;;;;;;;2.50;2.30;;;;;;;;;;4976600;28;20158;-45
2023/03/20 03:55:47;;;;;;;4.05;2.67;;;;;;;;;;4972456;28;20059;-43
2023/03/20 03:58:15;;;;;;;2.50;2.30;;;;;;;;;;4976787;28;20054;-45
2023/03/20 04:00:43;;;;;;;2.85;1.98;;;;;;;;;;4974544;28;20074;-45
2023/03/20 04:03:10;;;;;;;2.72;2.08;;;;;;;;;;4975659;28;20030;-41
2023/03/20 04:05:40;;;;;;;5.40;2.45;;;;;;;;;;4975742;28;20039;-43
2023/03/20 04:08:06;;;;;;;4.47;1.88;;;;;;;;;;4971704;28;20031;-40
2023/03/20 04:10:32;;;;;;;3.05;2.30;;;;;;;;;;4974081;28;20116;-42
2023/03/20 04:12:57;;;;;;;4.03;2.38;;;;;;;;;;4968122;28;20451;-41
2023/03/20 04:15:22;;;;;;;8.00;2.83;;;;;;;;;;4976336;28;20066;-44
2023/03/20 04:17:48;;;;;;;2.83;2.42;;;;;;;;;;4971904;28;20082;-48
2023/03/20 04:20:15;;;;;;;3.08;2.63;;;;;;;;;;4972296;28;20058;-48
2023/03/20 04:22:40;;;;;;;2.60;2.40;;;;;;;;;;4975282;28;20026;-50
2023/03/20 04:25:08;;;;;;;2.42;2.22;;;;;;;;;;5003855;28;20046;-45
2023/03/20 04:27:33;;;;;;;2.92;2.47;;;;;;;;;;5019253;28;20032;-43
2023/03/20 04:29:59;;;;;;;3.45;2.38;;;;;;;;;;5014452;28;20021;-47
2023/03/20 04:32:24;;;;;;;2.90;2.38;;;;;;;;;;5012100;28;20041;-47
2023/03/20 04:34:51;;;;;;;2.10;2.00;;;;;;;;;;5017712;28;20036;-43
2023/03/20 04:37:16;;;;;;;8.32;2.20;;;;;;;;;;5019313;28;20061;-45
2023/03/20 04:39:42;;;;;;;2.03;1.88;;;;;;;;;;5021787;28;20050;-43
2023/03/20 04:42:08;;;;;;;3.42;2.40;;;;;;;;;;5016556;28;20171;-45
2023/03/20 04:44:34;;;;;;;2.30;2.08;;;;;;;;;;5018864;28;20033;-42
2023/03/20 04:46:59;;;;;;;2.45;2.25;;;;;;;;;;5019081;28;20069;-47
2023/03/20 04:49:25;;;;;;;3.20;2.30;;;;;;;;;;5021138;28;20036;-41
2023/03/20 04:51:51;;;;;;;2.10;1.92;;;;;;;;;;5015086;28;20487;-41
2023/03/20 04:54:16;;;;;;;4.68;1.75;;;;;;;;;;5019484;28;20080;-43
2023/03/20 04:56:42;;;;;;;2.65;2.38;;;;;;;;;;5016385;28;20053;-41
2023/03/20 04:59:07;;;;;;;2.35;2.10;;;;;;;;;;5017715;28;20033;-43
2023/03/20 05:01:32;;;;;;;2.13;2.03;;;;;;;;;;5020069;28;20088;-46
2023/03/20 05:03:59;;;;;;;2.97;2.65;;;;;;;;;;5019384;28;20031;-45
2023/03/20 05:06:29;;;;;;;2.35;2.15;;;;;;;;;;5021027;28;20068;-46
2023/03/20 05:08:54;;;;;;;2.50;2.03;;;;;;;;;;5013655;28;20036;-45
2023/03/20 05:11:20;;;;;;;3.33;1.98;;;;;;;;;;5016408;28;20128;-41
2023/03/20 05:13:46;;;;;;;1.50;1.40;;;;;;;;;;5020379;28;20451;-45
2023/03/20 05:16:11;;;;;;;3.15;2.00;;;;;;;;;;5018686;28;20553;-46
2023/03/20 05:18:36;;;;;;;1.95;1.80;;;;;;;;;;5029440;28;20374;-45
2023/03/20 05:21:03;;;;;;;3.17;1.60;;;;;;;;;;5031249;28;20114;-47
2023/03/20 05:23:28;;;;;;;1.60;1.50;;;;;;;;;;5040135;28;20485;-48
2023/03/20 05:25:54;;;;;;;3.42;2.05;;;;;;;;;;5036583;28;20042;-44
2023/03/20 05:28:19;;;;;;;1.67;1.58;;;;;;;;;;5038733;28;20036;-47
2023/03/20 05:30:45;;;;;;;1.67;1.58;;;;;;;;;;5027940;28;20556;-47
2023/03/20 05:33:10;;;;;;;1.95;1.70;;;;;;;;;;5034908;28;20025;-46
2023/03/20 05:35:36;;;;;;;1.92;1.75;;;;;;;;;;5041941;28;20040;-43
2023/03/20 05:38:01;;;;;;;2.67;1.70;;;;;;;;;;5037819;28;20025;-47
2023/03/20 05:40:26;;;;;;;1.33;1.33;;;;;;;;;;5035049;28;20060;-47
2023/03/20 05:42:52;;;;;;;2.50;1.50;;;;;;;;;;5036544;28;20555;-49
2023/03/20 05:45:18;;;;;;;2.20;1.40;;;;;;;;;;5034100;28;20544;-47
2023/03/20 05:47:43;;;;;;;3.45;1.33;;;;;;;;;;5035559;28;20044;-47
2023/03/20 05:50:10;;;;;;;1.60;1.50;;;;;;;;;;5033672;28;20401;-45
2023/03/20 05:52:36;;;;;;;4.30;1.42;;;;;;;;;;5035196;28;20063;-45
2023/03/20 05:55:02;;;;;;;3.35;1.40;;;;;;;;;;5037315;28;20064;-46
2023/03/20 05:57:27;;;;;;;1.75;1.20;;;;;;;;;;5035448;28;20108;-46
2023/03/20 05:59:52;;;;;;;1.40;1.30;;;;;;;;;;5032469;28;20036;-47
2023/03/20 06:02:18;;;;;;;6.03;1.40;;;;;;;;;;5037795;28;20033;-48
2023/03/20 06:04:43;;;;;;;2.28;1.35;;;;;;;;;;5032017;28;20540;-44
2023/03/20 06:07:09;;;;;;;1.55;1.20;;;;;;;;;;5032412;28;20036;-43
2023/03/20 06:09:34;;;;;;;2.03;1.35;;;;;;;;;;5034632;28;20381;-47
2023/03/20 06:12:00;;;;;;;2.03;1.42;;;;;;;;;;5034408;28;20034;-43
2023/03/20 06:14:25;;;;;;;1.42;1.33;;;;;;;;;;5020495;28;20113;-41
2023/03/20 06:16:52;;;;;;;4.65;1.42;;;;;;;;;;5029622;28;20049;-45
2023/03/20 06:19:18;;;;;;;1.13;1.02;;;;;;;;;;5032828;28;20034;-44
2023/03/20 06:21:44;;;;;;;1.20;1.10;;;;;;;;;;5030979;28;20146;-44
2023/03/20 06:24:09;;;;;;;1.92;1.23;;;;;;;;;;5031345;28;20111;-43
2023/03/20 06:26:34;;;;;;;1.05;1.00;;;;;;;;;;5034366;28;20068;-45
2023/03/20 06:29:00;;;;;;;1.30;1.20;;;;;;;;;;5031743;28;20059;-42
2023/03/20 06:31:26;;;;;;;3.58;1.30;;;;;;;;;;5027542;28;20091;-43
2023/03/20 06:33:51;;;;;;;2.40;1.10;;;;;;;;;;5033652;28;20426;-42
2023/03/20 06:36:17;;;;;;;1.13;1.02;;;;;;;;;;5038482;28;20135;-43
2023/03/20 06:38:42;;;;;;;1.98;1.02;;;;;;;;;;5033243;28;20033;-45
2023/03/20 06:41:07;;;;;;;1.55;1.30;;;;;;;;;;5029048;28;20051;-46
2023/03/20 06:43:33;;;;;;;1.75;1.13;;;;;;;;;;5027591;28;20374;-45
2023/03/20 06:45:58;;;;;;;1.25;0.90;;;;;;;;;;5029857;28;20178;-43
2023/03/20 06:48:24;;;;;;;1.48;1.00;;;;;;;;;;5031709;28;20539;-43
2023/03/20 06:50:51;;;;;;;2.55;1.20;;;;;;;;;;5030412;28;20030;-43
2023/03/20 06:53:17;;;;;;;3.05;1.15;;;;;;;;;;5025138;28;20061;-49
2023/03/20 06:55:47;;;;;;;2.45;0.90;;;;;;;;;;5030579;28;20371;-43
2023/03/20 06:58:12;;;;;;;0.70;0.70;;;;;;;;;;5031093;28;20044;-43
2023/03/20 07:00:38;;;;;;;4.93;1.02;;;;;;;;;;5026089;28;20041;-49
2023/03/20 07:03:04;;;;;;;1.63;1.05;;;;;;;;;;5024564;28;20032;-42
2023/03/20 07:05:29;;;;;;;1.50;1.15;;;;;;;;;;5027221;28;20075;-48
2023/03/20 07:07:55;;;;;;;1.23;1.13;;;;;;;;;;5029242;28;20390;-44
2023/03/20 07:10:20;;;;;;;2.45;1.27;;;;;;;;;;5029202;28;20179;-49
2023/03/20 07:12:45;;;;;;;3.45;1.30;;;;;;;;;;5024363;28;20113;-49
2023/03/20 07:15:11;;;;;;;3.30;1.30;;;;;;;;;;5017751;28;20053;-43
2023/03/20 07:17:36;;;;;;;4.20;1.00;;;;;;;;;;5023793;28;20053;-43
2023/03/20 07:20:03;;;;;;;1.90;1.30;;;;;;;;;;5036441;28;20145;-42
2023/03/20 07:22:30;;;;;;;1.30;1.20;;;;;;;;;;5034454;28;20039;-43
2023/03/20 07:24:56;;;;;;;3.15;1.30;;;;;;;;;;5034163;28;20041;-42
2023/03/20 07:27:22;;;;;;;2.40;1.20;;;;;;;;;;5023453;28;20542;-43
2023/03/20 07:29:47;;;;;;;1.10;1.05;;;;;;;;;;5036181;28;20037;-47
2023/03/20 07:32:13;;;;;;;3.80;1.42;;;;;;;;;;5034405;28;20033;-48
2023/03/20 07:34:38;;;;;;;4.00;1.40;;;;;;;;;;5032307;28;20118;-46
2023/03/20 07:37:04;;;;;;;3.88;2.15;;;;;;;;;;5032706;28;20406;-48
2023/03/20 07:39:29;;;;;;;2.05;1.13;;;;;;;;;;5028760;28;20099;-48
2023/03/20 07:41:55;;;;;;;2.65;1.33;;;;;;;;;;5031425;28;20523;-42
2023/03/20 07:44:20;;;;;;;1.50;1.00;;;;;;;;;;5035770;28;20033;-43
2023/03/20 07:46:46;;;;;;;1.00;1.00;;;;;;;;;;5031118;28;20847;-44
2023/03/20 07:49:13;;;;;;;2.53;1.00;;;;;;;;;;5029403;28;20054;-47
2023/03/20 07:51:38;;;;;;;1.52;1.08;;;;;;;;;;5031739;28;20037;-43
2023/03/20 07:54:04;;;;;;;0.95;0.90;;;;;;;;;;5035632;28;20469;-43
2023/03/20 07:56:29;;;;;;;2.03;1.30;;;;;;;;;;5031821;28;20064;-43
2023/03/20 07:58:55;;;;;;;0.90;0.90;;;;;;;;;;5035838;28;20078;-44
2023/03/20 08:01:20;;;;;;;1.98;1.13;;;;;;;;;;5029119;28;20045;-44
2023/03/20 08:03:46;;;;;;;1.17;1.10;;;;;;;;;;5027198;28;20056;-46
2023/03/20 08:06:11;;;;;;;2.08;1.10;;;;;;;;;;5032815;28;20071;-43
2023/03/20 08:08:37;;;;;;;4.45;1.30;;;;;;;;;;5034506;28;20101;-45
2023/03/20 08:11:02;;;;;;;3.83;1.35;;;;;;;;;;5037996;28;20141;-45
2023/03/20 08:13:28;;;;;;;1.67;1.30;;;;;;;;;;5037385;28;20032;-45
2023/03/20 08:15:53;;;;;;;1.15;1.00;;;;;;;;;;5027990;28;20042;-41
2023/03/20 08:18:21;;;;;;;1.40;1.13;;;;;;;;;;5034204;28;20107;-43
2023/03/20 08:20:46;;;;;;;2.45;1.40;;;;;;;;;;5031145;28;20056;-42
2023/03/20 08:23:12;;;;;;;1.98;1.75;;;;;;;;;;5041824;28;20029;-44
2023/03/20 08:25:37;;;;;;;1.40;1.30;;;;;;;;;;5036293;28;20048;-43
2023/03/20 08:28:03;;;;;;;1.38;1.25;;;;;;;;;;5029696;28;20028;-42
2023/03/20 08:30:29;;;;;;;1.48;1.20;;;;;;;;;;5036491;28;20429;-42
2023/03/20 08:32:54;;;;;;;1.45;1.17;;;;;;;;;;5037562;28;20525;-42
2023/03/20 08:35:20;;;;;;;1.27;1.17;;;;;;;;;;5038141;28;20053;-43
2023/03/20 08:37:45;;;;;;;1.30;1.20;;;;;;;;;;5035916;28;20029;-43
2023/03/20 08:40:11;;;;;;;1.08;1.00;;;;;;;;;;5033612;28;20091;-42
2023/03/20 08:42:36;;;;;;;1.40;1.30;;;;;;;;;;5039373;28;20499;-42
2023/03/20 08:45:02;;;;;;;1.70;1.17;;;;;;;;;;5037031;28;20102;-42
2023/03/20 08:47:27;;;;;;;1.90;1.20;;;;;;;;;;5037732;28;20032;-44
2023/03/20 08:49:53;;;;;;;0.90;0.90;;;;;;;;;;5038640;28;20033;-43
2023/03/20 08:52:18;;;;;;;1.33;1.05;;;;;;;;;;5039088;28;20026;-44
2023/03/20 08:54:43;;;;;;;1.63;1.25;;;;;;;;;;5032781;28;20417;-42
2023/03/20 08:57:09;;;;;;;1.33;1.13;;;;;;;;;;5037254;28;20017;-42
2023/03/20 08:59:34;;;;;;;4.28;1.27;;;;;;;;;;5035857;28;20029;-45
2023/03/20 09:02:00;;;;;;;1.10;1.10;;;;;;;;;;5035868;28;20466;-43
2023/03/20 09:04:26;;;;;;;1.08;1.00;;;;;;;;;;5034611;28;20021;-42
2023/03/20 09:06:52;;;;;;;1.42;1.25;;;;;;;;;;5039170;28;20041;-43
2023/03/20 09:09:19;;;;;;;2.60;1.10;;;;;;;;;;5037538;28;20040;-43
2023/03/20 09:11:45;;;;;;;1.08;0.98;;;;;;;;;;5035754;28;20684;-44
2023/03/20 09:14:10;;;;;;;3.15;1.05;;;;;;;;;;5037309;28;20029;-43
2023/03/20 09:16:36;;;;;;;1.67;0.95;;;;;;;;;;5034643;28;20509;-47
2023/03/20 09:19:02;;;;;;;1.95;1.00;;;;;;;;;;5036679;28;20485;-41
2023/03/20 09:21:27;;;;;;;1.23;1.13;;;;;;;;;;5033603;28;20112;-43
2023/03/20 09:23:53;;;;;;;4.72;1.00;;;;;;;;;;5037583;28;20160;-42
2023/03/20 09:26:18;;;;;;;1.08;0.80;;;;;;;;;;5036260;28;20049;-48
2023/03/20 09:28:44;;;;;;;1.25;1.15;;;;;;;;;;5034752;28;20036;-47
2023/03/20 09:31:10;;;;;;;2.20;1.40;;;;;;;;;;5030692;28;20100;-48
2023/03/20 09:33:36;;;;;;;5.13;1.40;;;;;;;;;;5041144;28;20032;-44
2023/03/20 09:36:01;;;;;;;1.58;1.48;;;;;;;;;;5034491;28;20033;-42
2023/03/20 09:38:27;;;;;;;1.73;1.30;;;;;;;;;;5037047;28;20025;-45
2023/03/20 09:40:56;;;;;;;2.50;1.17;;;;;;;;;;5034868;28;21517;-47
2023/03/20 09:43:24;;;;;;;0.95;0.82;;;;;;;;;;5036667;28;20041;-40
2023/03/20 09:45:50;;;;;;;1.33;0.70;;;;;;;;;;5034894;28;20033;-50
2023/03/20 09:48:31;;;;;;;0.80;0.80;;;;;;;;;;5037431;28;20036;-41
2023/03/20 09:51:24;;;;;;;1.13;0.85;;;;;;;;;;5033176;28;20049;-40
2023/03/20 09:53:58;;;;;;;0.80;0.80;;;;;;;;;;5038308;28;20017;-43
2023/03/20 09:56:26;;;;;;;2.60;1.02;;;;;;;;;;5036078;28;20099;-47
2023/03/20 09:58:57;;;;;;;1.77;0.98;;;;;;;;;;5035302;28;20537;-41
2023/03/20 10:01:26;;;;;;;2.72;1.15;;;;;;;;;;5027826;28;20045;-43
2023/03/20 10:04:01;;;;;;;1.20;0.95;;;;;;;;;;5035864;28;20048;-41
2023/03/20 10:06:26;;;;;;;1.38;1.13;;;;;;;;;;5032799;28;20045;-44
2023/03/20 10:08:53;;;;;;;0.80;0.80;;;;;;;;;;5040752;28;20036;-45
2023/03/20 10:11:28;;;;;;;2.25;1.13;;;;;;;;;;5036142;28;20063;-47
2023/03/20 10:14:06;;;;;;;2.83;1.25;;;;;;;;;;5032271;28;20386;-44
2023/03/20 10:16:34;;;;;;;1.67;0.90;;;;;;;;;;5031037;28;20048;-40
2023/03/20 10:19:02;;;;;;;1.40;1.10;;;;;;;;;;5026937;28;20049;-43
2023/03/20 10:21:50;;;;;;;1.65;1.08;;;;;;;;;;5032630;28;20055;-42
2023/03/20 10:24:24;;;;;;;2.40;1.10;;;;;;;;;;5034918;28;20528;-45
2023/03/20 10:26:51;;;;;;;2.63;1.27;;;;;;;;;;5037729;28;20073;-41
2023/03/20 10:29:59;;;;;;;1.33;0.93;;;;;;;;;;5030803;28;20113;-44
2023/03/20 10:32:27;;;;;;;3.03;0.85;;;;;;;;;;5032042;28;20165;-42
2023/03/20 10:35:08;;;;;;;3.10;0.90;;;;;;;;;;5031004;28;20032;-51
2023/03/20 10:38:03;;;;;;;3.47;0.90;;;;;;;;;;5033879;28;20025;-43
2023/03/20 10:40:31;;;;;;;3.40;1.00;;;;;;;;;;5030564;28;20045;-46
2023/03/20 10:43:05;;;;;;;2.90;1.10;;;;;;;;;;5034635;28;20029;-48
2023/03/20 10:45:51;;;;;;;0.85;0.85;;;;;;;;;;5034450;28;20123;-50
2023/03/20 10:48:25;;;;;;;2.80;0.90;;;;;;;;;;5034522;28;20092;-49
2023/03/20 10:50:54;;;;;;;0.73;0.73;;;;;;;;;;5031789;28;20040;-51
2023/03/20 10:53:49;;;;;;;1.60;1.10;;;;;;;;;;5033821;28;20498;-42
2023/03/20 10:56:35;;;;;;;4.55;1.00;;;;;;;;;;5022528;28;20074;-41
2023/03/20 10:59:16;;;;;;;2.08;1.00;;;;;;;;;;5032352;28;20039;-45
2023/03/20 11:01:41;;;;;;;0.80;0.80;;;;;;;;;;5030402;28;20041;-43
2023/03/20 11:04:07;;;;;;;1.33;0.90;;;;;;;;;;5034370;28;20025;-44
2023/03/20 11:06:41;;;;;;;2.60;0.82;;;;;;;;;;5028922;28;20490;-45
2023/03/20 11:09:28;;;;;;;1.58;0.90;;;;;;;;;;5031761;28;20028;-44
2023/03/20 11:11:56;;;;;;;2.92;0.90;;;;;;;;;;5027649;28;20033;-42
2023/03/20 11:14:31;;;;;;;3.10;1.00;;;;;;;;;;5026041;28;20033;-45
2023/03/20 11:17:00;;;;;;;1.58;0.93;;;;;;;;;;5034822;28;20076;-41
2023/03/20 11:19:26;;;;;;;0.95;0.73;;;;;;;;;;5014614;28;20398;-42
2023/03/20 11:21:55;;;;;;;1.63;0.90;;;;;;;;;;5032381;28;20042;-43
2023/03/20 11:24:26;;;;;;;1.92;0.90;;;;;;;;;;5026819;28;20377;-41
2023/03/20 11:26:52;;;;;;;1.02;1.00;;;;;;;;;;5033932;28;20581;-44
2023/03/20 11:29:33;;;;;;;1.50;0.90;;;;;;;;;;5031200;28;20076;-44
2023/03/20 11:32:32;;;;;;;0.80;0.80;;;;;;;;;;5031717;28;20036;-45
2023/03/20 11:35:24;;;;;;;1.13;0.88;;;;;;;;;;5033545;28;20037;-42
2023/03/20 11:37:52;;;;;;;4.03;1.02;;;;;;;;;;5034260;28;20064;-44
2023/03/20 11:40:22;;;;;;;1.73;0.90;;;;;;;;;;5031128;28;20049;-50
2023/03/20 11:43:13;;;;;;;2.38;1.00;;;;;;;;;;5032613;28;20083;-42
2023/03/20 11:45:41;;;;;;;1.48;1.10;;;;;;;;;;5036497;28;20512;-44
2023/03/20 11:48:16;;;;;;;5.97;0.90;;;;;;;;;;5038100;28;20040;-46
2023/03/20 11:50:44;;;;;;;0.90;0.90;;;;;;;;;;5036431;28;20042;-48
2023/03/20 11:53:21;;;;;;;0.80;0.80;;;;;;;;;;5044001;28;20049;-47
2023/03/20 11:56:13;;;;;;;3.78;1.60;;;;;;;;;;5043511;28;20076;-43
2023/03/20 11:59:02;;;;;;;2.47;1.15;;;;;;;;;;5038981;28;20057;-47
2023/03/20 12:01:36;;;;;;;1.70;0.82;;;;;;;;;;5036423;28;20098;-42
2023/03/20 12:04:10;;;;;;;2.35;1.05;;;;;;;;;;5035896;28;20420;-42
2023/03/20 12:06:57;;;;;;;1.55;1.17;;;;;;;;;;5040653;28;20037;-45
2023/03/20 12:09:25;;;;;;;0.95;0.80;;;;;;;;;;5039708;28;20090;-43
2023/03/20 12:11:55;;;;;;;1.52;1.30;;;;;;;;;;5037439;28;20075;-43
2023/03/20 12:14:34;;;;;;;1.85;0.93;;;;;;;;;;5035938;28;20665;-42
2023/03/20 12:17:34;;;;;;;1.63;1.10;;;;;;;;;;5039791;28;20127;-43
2023/03/20 12:20:15;;;;;;;0.95;0.75;;;;;;;;;;5035758;28;20029;-42
2023/03/20 12:23:22;;;;;;;7.00;1.10;;;;;;;;;;5038451;28;20036;-46
2023/03/20 12:25:52;;;;;;;1.50;0.98;;;;;;;;;;5040409;28;20041;-44
2023/03/20 12:28:45;;;;;;;1.20;1.10;;;;;;;;;;5039869;28;20164;-46
2023/03/20 12:31:32;;;;;;;1.23;1.10;;;;;;;;;;5038338;28;20046;-43
2023/03/20 12:34:04;;;;;;;1.77;1.10;;;;;;;;;;5037612;28;20025;-45
2023/03/20 12:36:37;;;;;;;1.90;1.10;;;;;;;;;;5040623;28;20041;-44
2023/03/20 12:39:10;;;;;;;1.20;1.00;;;;;;;;;;5040964;28;20090;-42
2023/03/20 12:41:50;;;;;;;1.08;0.90;;;;;;;;;;5038244;28;20082;-48
2023/03/20 12:44:24;;;;;;;0.95;0.90;;;;;;;;;;5039567;28;20031;-43
2023/03/20 12:47:06;;;;;;;2.53;1.35;;;;;;;;;;5037063;28;20144;-50
2023/03/20 12:49:40;;;;;;;1.67;1.33;;;;;;;;;;5038992;28;20106;-48
2023/03/20 12:52:16;;;;;;;1.63;1.00;;;;;;;;;;5036975;28;20555;-48
2023/03/20 12:55:12;;;;;;;1.13;1.00;;;;;;;;;;5039815;28;20036;-41
2023/03/20 12:57:43;;;;;;;1.20;1.00;;;;;;;;;;5032563;28;20045;-42
2023/03/20 13:00:31;;;;;;;6.55;1.00;;;;;;;;;;5036510;28;20037;-44
2023/03/20 13:03:06;;;;;;;2.63;1.10;;;;;;;;;;5032822;28;20032;-46
2023/03/20 13:06:03;;;;;;;2.00;1.08;;;;;;;;;;5035149;28;20046;-42
2023/03/20 13:08:46;;;;;;;2.95;1.00;;;;;;;;;;5034512;28;20034;-44
2023/03/20 13:11:39;;;;;;;0.80;0.80;;;;;;;;;;5036458;28;20044;-44
2023/03/20 13:14:36;;;;;;;0.70;0.70;;;;;;;;;;5037184;28;20497;-45
2023/03/20 13:17:23;;;;;;;1.75;1.33;;;;;;;;;;5028426;28;20129;-44
2023/03/20 13:19:55;;;;;;;3.42;1.00;;;;;;;;;;5041868;28;20071;-47
2023/03/20 13:22:52;;;;;;;1.58;0.90;;;;;;;;;;5028190;28;20136;-47
2023/03/20 13:25:31;;;;;;;4.35;0.90;;;;;;;;;;5033472;28;20049;-50
2023/03/20 13:27:59;;;;;;;2.40;1.20;;;;;;;;;;5032478;28;20756;-44
2023/03/20 13:30:50;;;;;;;1.45;1.25;;;;;;;;;;5032085;28;20709;-43
2023/03/20 13:33:25;;;;;;;2.63;1.20;;;;;;;;;;5039532;28;20211;-48
2023/03/20 13:35:53;;;;;;;0.93;0.93;;;;;;;;;;5033647;28;20521;-45
2023/03/20 13:38:39;;;;;;;1.48;1.00;;;;;;;;;;5034699;28;20386;-48
2023/03/20 13:41:08;;;;;;;1.20;0.82;;;;;;;;;;5034004;28;20124;-47
2023/03/20 13:43:44;;;;;;;1.63;0.90;;;;;;;;;;5034351;28;20029;-50
2023/03/20 13:46:15;;;;;;;2.85;0.80;;;;;;;;;;5034705;28;20504;-48
2023/03/20 13:48:42;;;;;;;1.63;1.00;;;;;;;;;;5033216;28;20021;-48
2023/03/20 13:51:30;;;;;;;1.00;1.00;;;;;;;;;;5035248;28;20120;-45
2023/03/20 13:54:26;;;;;;;1.40;0.85;;;;;;;;;;5033965;28;20022;-49
2023/03/20 13:57:05;;;;;;;2.17;1.10;;;;;;;;;;5033091;28;20489;-50
2023/03/20 13:59:59;;;;;;;1.00;0.70;;;;;;;;;;5030442;28;20029;-44
2023/03/20 14:02:45;;;;;;;2.83;1.23;;;;;;;;;;5032864;28;20045;-42
2023/03/20 14:05:21;;;;;;;1.15;0.80;;;;;;;;;;5029871;28;20121;-48
2023/03/20 14:07:49;;;;;;;4.78;1.20;;;;;;;;;;5033591;28;20574;-46
2023/03/20 14:10:21;;;;;;;2.00;0.85;;;;;;;;;;5034206;28;20041;-43
2023/03/20 14:13:17;;;;;;;2.03;1.10;;;;;;;;;;5035900;28;20036;-49
2023/03/20 14:15:53;;;;;;;1.13;0.93;;;;;;;;;;5029739;28;20037;-46
2023/03/20 14:18:22;;;;;;;10.45;1.30;;;;;;;;;;5032773;28;20129;-45
2023/03/20 14:20:59;;;;;;;1.17;1.02;;;;;;;;;;5032101;28;20040;-43
2023/03/20 14:23:49;;;;;;;1.23;1.02;;;;;;;;;;5030854;28;20490;-48
2023/03/20 14:26:25;;;;;;;1.00;0.90;;;;;;;;;;5034804;28;20083;-46
2023/03/20 14:29:17;;;;;;;1.20;0.95;;;;;;;;;;5038815;28;20390;-45
2023/03/20 14:31:47;;;;;;;2.17;1.03;;;;;;;;;;5037649;28;20099;-45
2023/03/20 14:34:20;;;;;;;1.20;1.10;;;;;;;;;;5025723;28;20433;-51
2023/03/20 14:36:56;;;;;;;1.15;1.05;;;;;;;;;;5036631;28;20060;-46
2023/03/20 14:39:39;;;;;;;1.02;0.90;;;;;;;;;;5034692;28;20031;-47
2023/03/20 14:42:22;;;;;;;0.85;0.80;;;;;;;;;;5029058;28;20037;-50
2023/03/20 14:45:06;;;;;;;1.63;1.10;;;;;;;;;;5029595;28;20044;-48
2023/03/20 14:47:43;;;;;;;2.53;1.00;;;;;;;;;;5032014;28;20040;-49
2023/03/20 14:50:16;;;;;;;1.27;1.17;;;;;;;;;;5028937;28;20045;-50
2023/03/20 14:52:57;;;;;;;1.10;1.00;;;;;;;;;;5036744;28;20032;-49
2023/03/20 14:55:29;;;;;;;1.15;1.08;;;;;;;;;;5032643;28;20409;-47
2023/03/20 14:57:55;;;;;;;;;;;;;;;;;;5028965;28;20025;-45
2023/03/20 15:00:21;;;;;;;1.20;0.93;;;;;;;;;;5032880;28;20408;-46
2023/03/20 15:02:50;;;;;;;1.00;1.00;;;;;;;;;;5035890;28;20089;-49
2023/03/20 15:05:28;;;;;;;2.25;1.15;;;;;;;;;;5033681;28;20037;-44
2023/03/20 15:07:56;;;;;;;1.38;1.08;;;;;;;;;;5034269;28;20123;-44
2023/03/20 15:10:23;;;;;;;1.10;1.00;;;;;;;;;;5031822;28;20037;-46